Latest Weather Observations for Devonport Airport

IDT60801

Issued at 5:32 am EDT Monday 20 February 2017 (issued every 30 minutes, with the page automatically refreshed every 10 minutes)

About weather observations | Map of weather stations | Latest weather observations for TAS | Other Formats
Station Details ID: 091126 Name: DEVONPORT AIRPORT Lat: -41.17 Lon: 146.43 Height: 8.0 m
Data from the previous 72 hours. | See also: Recent months at Devonport Airport
Date/Time
EDT
Temp
°C
App
Temp
°C
Dew
Point
°C
Rel
Hum
%
Delta-T
°C
Wind Press
QNH
hPa
Press
MSL
hPa
Rain since
9am
mm
Dir  Spd
km/h
Gust
km/h
Spd
kts
Gust
kts
20/05:30am 6.7 3.9 5.2 90 0.7 SSW 9 13 5 7 1006.3 1006.3 0.0
20/05:00am 6.8 2.5 5.3 90 0.7 SSE 17 20 9 11 1006.2 1006.2 0.0
20/04:30am 7.2 2.6 5.8 91 0.6 SSE 19 24 10 13 1006.3 1006.3 0.0
20/04:00am 7.0 2.8 5.5 90 0.7 SSE 17 20 9 11 1006.2 1006.2 0.0
20/03:30am 7.4 4.0 5.9 90 0.7 S 13 15 7 8 1006.2 1006.2 0.0
20/03:00am 7.4 3.3 6.0 91 0.6 SSE 17 19 9 10 1006.1 1006.1 0.0
20/02:30am 7.2 3.8 5.7 90 0.7 SSE 13 17 7 9 1006.2 1006.2 0.0
20/02:00am 7.9 4.5 5.9 87 0.9 S 13 17 7 9 1006.4 1006.4 0.0
20/01:30am 8.2 4.5 6.2 87 0.9 SSE 15 19 8 10 1006.1 1006.1 0.0
20/01:00am 7.7 3.9 6.0 89 0.8 SSE 15 17 8 9 1006.1 1006.1 0.0
20/12:30am 8.0 4.3 6.3 89 0.8 S 15 20 8 11 1006.0 1006.0 0.0
20/12:00am 8.6 5.7 6.7 88 0.9 SSE 11 15 6 8 1006.2 1006.2 0.0
 
Date/Time
EDT
Temp
°C
App
Temp
°C
Dew
Point
°C
Rel
Hum
%
Delta-T
°C
Wind Press
QNH
hPa
Press
MSL
hPa
Rain since
9am
mm
Dir  Spd
km/h
Gust
km/h
Spd
kts
Gust
kts
19/11:52pm 8.2 5.3 6.3 88 0.9 S 11 17 6 9 1006.2 1006.2 0.0
19/11:34pm 8.7 5.0 6.5 86 1.0 SSE 15 17 8 9 1006.2 1006.2 0.0
19/11:30pm 8.9 5.3 6.7 86 1.0 SSE 15 19 8 10 1006.3 1006.3 0.0
19/11:00pm 8.9 5.3 6.7 86 1.0 S 15 17 8 9 1006.6 1006.6 0.0
19/10:30pm 9.8 6.7 7.2 84 1.2 SSE 13 17 7 9 1006.6 1006.6 0.0
19/10:00pm 9.4 6.2 7.0 85 1.1 S 13 13 7 7 1006.5 1006.5 0.0
19/09:30pm 10.2 7.4 7.1 81 1.5 SSE 11 13 6 7 1006.3 1006.3 0.0
19/09:00pm 11.5 10.8 6.8 73 2.2 CALM 0 0 0 0 1006.0 1006.0 0.0
19/08:30pm 12.3 10.1 6.4 67 2.8 NNW 7 9 4 5 1005.6 1005.6 0.0
19/08:00pm 12.9 10.4 6.5 65 3.1 N 9 13 5 7 1005.3 1005.3 0.0
19/07:30pm 14.0 10.9 7.1 63 3.4 N 13 19 7 10 1005.0 1005.0 0.0
19/07:00pm 14.2 10.7 7.3 63 3.4 NNW 15 19 8 10 1004.7 1004.7 0.0
19/06:30pm 14.3 10.8 7.1 62 3.5 N 15 19 8 10 1004.4 1004.4 0.0
19/06:00pm 14.5 11.7 6.8 60 3.8 N 11 17 6 9 1004.1 1004.1 0.0
19/05:30pm 14.5 11.2 6.6 59 3.8 N 13 17 7 9 1004.1 1004.1 0.0
19/05:00pm 14.6 10.8 7.4 62 3.6 NNW 17 20 9 11 1004.0 1004.0 0.0
19/04:30pm 14.5 10.7 5.6 55 4.2 N 15 20 8 11 1004.1 1004.1 0.0
19/04:00pm 16.0 12.0 6.7 54 4.6 NNW 17 22 9 12 1004.2 1004.2 0.0
19/03:30pm 14.5 11.4 7.3 62 3.5 NNW 13 20 7 11 1004.2 1004.2 0.0
19/03:00pm 13.2 10.1 8.9 75 2.2 WNW 15 20 8 11 1004.4 1004.4 0.0
19/02:30pm 14.1 9.9 7.6 65 3.2 N 19 24 10 13 1004.4 1004.4 0.0
19/02:00pm 15.3 11.4 7.3 59 4.0 NNW 17 20 9 11 1004.4 1004.4 0.0
19/01:30pm 15.0 11.0 8.3 64 3.4 NNW 19 24 10 13 1004.4 1004.4 0.0
19/01:00pm 15.2 10.9 8.0 62 3.6 NNW 20 28 11 15 1004.5 1004.5 0.0
19/12:30pm 14.7 10.4 6.8 59 3.8 NNW 19 24 10 13 1004.7 1004.7 0.0
19/12:00pm 15.3 11.8 7.3 59 4.0 NNW 15 22 8 12 1005.0 1005.0 0.0
19/11:30am 14.3 10.5 7.6 64 3.3 NW 17 22 9 12 1005.2 1005.2 0.0
19/11:00am 13.6 10.4 6.9 64 3.3 NNW 13 19 7 10 1005.1 1005.1 0.0
19/10:30am 13.3 9.7 6.6 64 3.2 NW 15 22 8 12 1005.1 1005.1 0.0
19/10:00am 13.1 8.6 7.1 67 2.9 NW 20 24 11 13 1005.0 1005.0 0.0
19/09:30am 13.0 9.7 7.9 71 2.5 WNW 15 20 8 11 1004.8 1004.8 0.0
19/09:00am 12.2 9.6 7.9 75 2.1 W 11 15 6 8 1004.7 1004.7 1.2
19/08:30am 11.3 9.9 8.9 85 1.2 W 6 9 3 5 1004.7 1004.7 1.2
19/08:00am 10.0 8.2 8.1 88 0.9 SW 7 9 4 5 1004.4 1004.4 1.2
19/07:30am 9.6 7.5 8.4 92 0.6 SSW 9 11 5 6 1004.3 1004.3 1.2
19/07:00am 9.5 7.5 8.7 95 0.4 SSW 9 11 5 6 1004.3 1004.3 1.2
19/06:30am 9.3 7.6 8.5 95 0.4 SSE 7 9 4 5 1003.8 1003.8 1.2
19/06:00am 9.4 7.8 8.6 95 0.4 S 7 11 4 6 1003.8 1003.8 1.2
19/05:30am 9.3 7.7 7.9 91 0.7 SSE 6 9 3 5 1003.9 1003.9 1.0
19/05:00am 10.6 8.8 8.0 84 1.3 WSW 7 9 4 5 1003.9 1003.9 1.0
19/04:35am 11.0 8.5 8.2 83 1.4 NW 11 17 6 9 1004.1 1004.1 1.0
19/04:30am 11.0 8.9 8.2 83 1.4 NW 9 15 5 8 1004.1 1004.1 1.0
19/04:19am 10.5 8.7 7.9 84 1.3 SW 7 9 4 5 1004.3 1004.3 1.0
19/04:00am 11.0 8.8 7.7 80 1.6 SW 9 13 5 7 1004.3 1004.3 0.0
19/03:30am 11.4 7.1 7.9 79 1.7 WNW 20 26 11 14 1004.9 1004.9 0.0
19/03:00am 10.5 8.8 7.4 81 1.5 SSW 6 9 3 5 1005.2 1005.2 0.0
19/02:30am 11.1 8.1 7.8 80 1.6 W 13 19 7 10 1005.5 1005.5 0.0
19/02:00am 11.9 8.5 7.6 75 2.1 W 15 26 8 14 1005.9 1005.9 0.0
19/01:30am 11.8 7.3 7.1 73 2.3 WNW 20 28 11 15 1006.1 1006.1 0.0
19/01:00am 11.3 8.5 7.0 75 2.1 W 11 20 6 11 1006.5 1006.5 0.0
19/12:30am 10.4 7.0 5.8 73 2.1 WSW 13 15 7 8 1006.8 1006.8 0.0
19/12:00am 10.4 7.0 6.0 74 2.0 WSW 13 15 7 8 1007.0 1007.0 0.0
 
Date/Time
EDT
Temp
°C
App
Temp
°C
Dew
Point
°C
Rel
Hum
%
Delta-T
°C
Wind Press
QNH
hPa
Press
MSL
hPa
Rain since
9am
mm
Dir  Spd
km/h
Gust
km/h
Spd
kts
Gust
kts
18/11:30pm 10.9 6.8 6.1 72 2.2 W 17 19 9 10 1007.2 1007.2 0.0
18/11:00pm 11.1 7.3 6.0 71 2.4 WSW 15 19 8 10 1007.5 1007.5 0.0
18/10:30pm 11.3 6.5 5.6 68 2.6 W 20 26 11 14 1007.8 1007.8 0.0
18/10:00pm 12.1 6.7 6.2 67 2.8 W 24 32 13 17 1007.9 1007.9 0.0
18/09:30pm 12.8 6.5 5.5 61 3.4 W 28 35 15 19 1007.7 1007.7 0.0
18/09:00pm 12.4 7.5 5.3 62 3.3 W 20 26 11 14 1007.7 1007.7 0.0
18/08:30pm 12.5 7.6 5.0 60 3.5 W 20 26 11 14 1007.6 1007.6 0.0
18/08:00pm 13.1 8.4 5.3 59 3.6 WSW 19 24 10 13 1007.4 1007.4 0.0
18/07:30pm 14.5 10.8 6.3 58 3.9 W 15 32 8 17 1006.9 1006.9 0.0
18/07:00pm 14.8 12.6 6.4 57 4.1 SW 7 11 4 6 1006.7 1006.7 0.0
18/06:30pm 14.2 10.2 6.8 61 3.6 SW 17 24 9 13 1006.8 1006.8 0.0
18/06:00pm 15.4 8.9 6.7 56 4.3 WNW 30 39 16 21 1006.6 1006.6 0.0
18/05:30pm 16.6 10.0 5.9 49 5.2 WNW 30 37 16 20 1006.6 1006.6 0.0
18/05:00pm 16.6 9.4 6.1 50 5.1 WNW 33 43 18 23 1006.6 1006.6 0.0
18/04:30pm 15.5 7.2 6.2 54 4.5 WNW 39 48 21 26 1006.7 1006.7 0.0
18/04:00pm 17.4 10.8 7.7 53 4.9 WNW 32 41 17 22 1007.0 1007.0 0.0
18/03:30pm 17.7 11.3 5.3 44 6.0 WNW 28 43 15 23 1007.3 1007.3 0.0
18/03:00pm 17.1 10.3 7.7 54 4.8 NW 33 39 18 21 1007.4 1007.4 0.0
18/02:30pm 16.9 9.1 8.1 56 4.5 NW 39 48 21 26 1007.3 1007.3 0.0
18/02:00pm 16.9 9.6 8.6 58 4.3 WNW 37 46 20 25 1007.2 1007.2 0.0
18/01:30pm 17.5 11.0 8.9 57 4.5 NW 33 43 18 23 1007.4 1007.4 0.0
18/01:00pm 17.0 10.0 8.4 57 4.4 NW 35 43 19 23 1007.6 1007.6 0.0
18/12:30pm 16.4 10.1 7.6 56 4.4 NW 30 37 16 20 1007.7 1007.7 0.0
18/12:00pm 16.2 10.0 7.7 57 4.3 NW 30 37 16 20 1007.9 1007.9 0.0
18/11:30am 16.0 10.2 6.4 53 4.7 NW 26 37 14 20 1007.9 1007.9 0.0
18/11:00am 15.9 10.1 6.1 52 4.8 NW 26 33 14 18 1008.2 1008.2 0.0
18/10:30am 14.9 10.3 5.4 53 4.5 NW 19 28 10 15 1008.3 1008.3 0.0
18/10:00am 14.6 10.3 6.9 60 3.8 WNW 19 28 10 15 1008.4 1008.4 0.0
18/09:30am 14.1 9.2 5.2 55 4.2 W 20 30 11 16 1008.4 1008.4 0.0
18/09:00am 13.2 9.0 5.9 61 3.5 W 17 20 9 11 1008.3 1008.3 0.0
18/08:30am 11.5 9.1 7.0 74 2.1 SW 9 9 5 5 1008.1 1008.1 0.0
18/08:00am 10.1 8.3 7.2 82 1.4 SW 6 7 3 4 1008.0 1008.0 0.0
18/07:30am 8.1 5.8 5.9 86 1.0 SW 7 9 4 5 1007.8 1007.8 0.0
18/07:00am 6.3 3.9 5.1 92 0.5 WSW 7 7 4 4 1007.6 1007.6 0.0
18/06:30am 5.1 2.3 3.0 86 0.9 SW 7 9 4 5 1007.2 1007.2 0.0
18/06:00am 6.0 3.0 4.2 88 0.8 S 9 11 5 6 1007.1 1007.1 0.0
18/05:30am 7.4 5.0 5.4 87 0.9 SW 7 11 4 6 1006.8 1006.8 0.0
18/05:00am 6.9 4.4 4.0 82 1.2 SW 6 7 3 4 1006.6 1006.6 0.0
18/04:30am 7.7 5.9 5.2 84 1.1 S 4 6 2 3 1006.6 1006.6 0.0
18/04:00am 10.0 7.5 6.5 79 1.6 WSW 9 11 5 6 1006.6 1006.6 0.0
18/03:30am 10.7 8.0 7.2 79 1.7 W 11 13 6 7 1006.6 1006.6 0.0
18/03:00am 10.5 8.1 7.0 79 1.7 W 9 11 5 6 1006.8 1006.8 0.0
18/02:30am 10.6 7.8 7.1 79 1.7 WSW 11 11 6 6 1006.8 1006.8 0.0
18/02:00am 9.8 6.2 6.9 82 1.4 W 15 19 8 10 1006.9 1006.9 0.0
18/01:30am 10.2 6.2 6.7 79 1.6 WSW 17 20 9 11 1007.1 1007.1 0.0
18/01:00am 10.5 7.3 6.8 78 1.8 WSW 13 15 7 8 1006.9 1006.9 0.0
18/12:30am 10.7 6.7 6.8 77 1.8 WSW 17 19 9 10 1007.1 1007.1 0.0
18/12:00am 11.2 7.2 6.7 74 2.1 W 17 22 9 12 1007.1 1007.1 0.0
 
Date/Time
EDT
Temp
°C
App
Temp
°C
Dew
Point
°C
Rel
Hum
%
Delta-T
°C
Wind Press
QNH
hPa
Press
MSL
hPa
Rain since
9am
mm
Dir  Spd
km/h
Gust
km/h
Spd
kts
Gust
kts
17/11:30pm 12.6 7.9 7.7 72 2.4 W 22 32 12 17 1007.1 1007.1 0.0
17/11:00pm 13.1 7.3 7.8 70 2.6 W 28 35 15 19 1007.0 1007.0 0.0
17/10:30pm 14.1 8.5 8.7 70 2.7 W 28 35 15 19 1007.2 1007.2 0.0
17/10:00pm 14.8 8.9 9.0 68 3.0 WNW 30 37 16 20 1006.7 1006.7 0.0
17/09:30pm 14.9 9.2 9.7 71 2.7 WNW 30 35 16 19 1006.6 1006.6 0.0
17/09:00pm 15.5 9.4 9.6 68 3.1 WNW 32 41 17 22 1006.2 1006.2 0.0
17/08:30pm 16.0 10.3 11.0 72 2.7 WNW 32 39 17 21 1005.9 1005.9 0.0
17/08:00pm 16.4 10.1 11.1 71 2.9 WNW 35 44 19 24 1005.4 1005.4 0.0
17/07:30pm 16.6 9.1 10.7 68 3.1 WNW 41 50 22 27 1004.7 1004.7 0.0
17/07:00pm 17.2 10.6 11.5 69 3.1 WNW 37 48 20 26 1004.4 1004.4 0.0
17/06:30pm 17.6 12.1 13.7 78 2.2 WNW 35 43 19 23 1004.0 1004.0 0.0
17/06:00pm 17.5 11.6 13.6 78 2.2 NW 37 46 20 25 1003.8 1003.8 0.0
17/05:52pm 17.3 11.7 13.4 78 2.2 NW 35 44 19 24 1003.9 1003.9 0.0
17/05:32pm 17.2 12.2 14.1 82 1.8 NW 33 43 18 23 1003.9 1003.9 0.0
17/05:30pm 17.7 12.8 14.4 81 1.9 NW 33 43 18 23 1004.0 1004.0 0.0
17/05:00pm 17.1 11.2 13.6 80 2.0 NW 37 46 20 25 1004.1 1004.1 0.0
17/04:30pm 17.7 11.9 13.8 78 2.2 NW 37 50 20 27 1004.1 1004.1 0.0
17/04:00pm 18.1 11.5 13.6 75 2.6 NW 41 50 22 27 1004.4 1004.4 0.0
17/03:30pm 18.1 12.6 13.6 75 2.6 NW 35 48 19 26 1004.7 1004.7 0.0
17/03:00pm 19.7 14.2 13.6 68 3.5 NW 35 44 19 24 1005.0 1005.0 0.0
17/02:30pm 19.3 13.9 13.9 71 3.1 NW 35 43 19 23 1005.3 1005.3 0.0
17/02:00pm 18.4 13.3 13.1 71 3.0 NW 32 41 17 22 1005.6 1005.6 0.0
17/01:30pm 18.2 12.4 12.6 70 3.1 NW 35 46 19 25 1005.8 1005.8 0.0
17/01:00pm 18.3 12.7 12.1 67 3.4 NW 33 43 18 23 1005.9 1005.9 0.0
17/12:30pm 18.4 12.9 11.9 66 3.6 WNW 32 39 17 21 1006.2 1006.2 0.0
17/12:19pm 17.0 12.3 12.1 73 2.7 WNW 28 39 15 21 1006.2 1006.2 0.0
17/12:07pm 14.9 8.3 12.6 86 1.3 WNW 39 57 21 31 1006.4 1006.4 0.0
17/12:01pm 15.6 9.3 12.2 80 1.9 WNW 37 57 20 31 1006.4 1006.4 0.0
17/12:00pm 16.0 9.7 11.0 72 2.7 NW 35 52 19 28 1006.4 1006.4 0.0
17/11:30am 16.8 11.1 11.3 70 3.0 NW 32 39 17 21 1006.7 1006.7 0.0
17/11:00am 17.4 11.7 11.0 66 3.5 NW 32 41 17 22 1006.6 1006.6 0.0
17/10:30am 16.9 13.5 11.4 70 3.0 NW 20 26 11 14 1006.7 1006.7 0.0
17/10:00am 16.2 13.5 11.8 75 2.4 WNW 17 19 9 10 1006.7 1006.7 0.0
17/09:30am 15.5 12.6 10.9 74 2.4 WNW 17 20 9 11 1006.7 1006.7 0.0
17/09:00am 15.4 12.1 10.8 74 2.4 WNW 19 22 10 12 1006.8 1006.8 0.0
17/08:30am 15.1 13.3 10.7 75 2.3 WNW 11 20 6 11 1006.9 1006.9 0.0
17/08:00am 12.7 12.0 10.1 84 1.3 SSW 4 7 2 4 1006.8 1006.8 0.0
17/07:30am 11.8 11.6 9.2 84 1.3 CALM 0 0 0 0 1006.8 1006.8 0.0
17/07:00am 11.6 10.1 9.2 85 1.2 S 7 7 4 4 1006.5 1006.5 0.0
17/06:30am 11.3 9.7 8.7 84 1.3 SSE 7 9 4 5 1006.5 1006.5 0.0
17/06:00am 11.8 10.1 8.3 79 1.7 WSW 7 9 4 5 1006.5 1006.5 0.0

Other Formats:

Comma delimited format used in spreadsheet applications
http://www.bom.gov.au/fwo/IDT60801/IDT60801.95960.axf

JavaScript Object Notation format (JSON) in row-major order
http://www.bom.gov.au/fwo/IDT60801/IDT60801.95960.json